Salamis, Greece
Current Conditions -  °F | °C
As of 3:20 AM on Tuesday 23 Dec 2014 (Local Time) from LGEL Reporting Station
Few Clouds Few Clouds  
Wind Chill: 34°   Ceiling: Unl
Heat Index: 39°   Visibility: 6mi
Dew Point: 34°   Wind: 8mph
Humidity: 81%   Direction: 330°NNW
Pressure: 30.3"   Gusts: NA
Location:  37.97°N, 23.48°E
Report Text: LGEL 230020Z 33007KT 9999 FEW025 04/01 Q1026
Loading
Personal Weather Stations






























Interactive Weather Map New forecast layout! Learn more

10-Day Weather Forecast

Advertisements
Track Severe Weather on mobile